Wuyishan, China
Current Conditions -  °F | °C
As of 10:00 PM on Tuesday 21 Oct 2014 (Local Time) from ZSFZ Reporting Station
Haze Haze  
Wind Chill: 75°   Ceiling: Unl
Heat Index: 75°   Visibility: 3mi
Dew Point: 72°   Wind: 2mph
Humidity: 89%   Direction: NA
Pressure: 29.94"   Gusts: NA
Location:  27.77°N, 118.03°E
Report Text: ZSFZ 211400Z VRB01MPS 5000 BR FEW016 24/22 Q1014 NOSIG
Loading
Personal Weather Stations






























Interactive Weather Map
Tropical Storm Tracking
New forecast layout! Learn more

10-Day Weather Forecast

Advertisements
Track Severe Weather on mobile